Weather at Palmerston Airport

Public forecast

Using degrees Celsius for public forecast. Weather courtesy of forecast.io.

Closest aviation weather report (METAR) to Palmerston Airport

Closest report is Waterloo Airport, 29.3 nm (54.3 km) SE. Retrieved 2020/09/29 17:00 UTC (1 hour ago):

CYKF 291700Z AUTO 25008KT 210V290 9SM BKN028 BKN038 OVC050 17/09 A2982 RMK SLP101 DENSITY ALT 1500FT

Closest aviation forecast (TAF) to Palmerston Airport

Closest forecast is Waterloo Airport, 29.3 nm (54.3 km) SE. Retrieved 2020/09/29 14:39 UTC (3 hours ago):

TAF CYKF 291338Z 2914/3002 24012KT P6SM BKN015 TEMPO 2914/2917 FEW015 BKN025 FM291700 24012KT P6SM BKN030 BECMG 2922/2924 22008KT RMK FCST BASED ON AUTO OBS NXT FCST BY 292000Z